Time;durP1;ratioP1;P1;durP2;ratioP2;P2;SDS_P1;SDS_P2;PMS_P1;PMS_P2;Temp;Humidity;BMP_temperature;BMP_pressure;BME280_temperature;BME280_humidity;BME280_pressure;Samples;Min_cycle;Max_cycle;Signal;HPM_P1;HPM_P2
2022/12/05 00:00:45;;;;;;;;;7.40;7.00;;;;;3.22;81.08;99910.56;5076630;28;8860;-59
2022/12/05 00:03:12;;;;;;;;;7.80;7.40;;;;;3.20;81.63;99897.53;5076272;28;8821;-59
2022/12/05 00:05:40;;;;;;;;;15.40;13.80;;;;;3.20;81.06;99912.44;5075993;28;8814;-58
2022/12/05 00:08:08;;;;;;;;;14.60;12.40;;;;;3.21;81.54;99907.13;5076846;28;8821;-59
2022/12/05 00:10:35;;;;;;;;;12.80;10.60;;;;;3.23;81.22;99909.66;5077382;28;8838;-58
2022/12/05 00:13:03;;;;;;;;;22.80;19.40;;;;;3.24;81.19;99906.13;5077085;28;9515;-60
2022/12/05 00:15:31;;;;;;;;;19.40;17.20;;;;;3.24;81.64;99903.47;5095574;28;8804;-59
2022/12/05 00:17:59;;;;;;;;;18.80;15.40;;;;;3.24;81.36;99903.47;5097318;28;8803;-60
2022/12/05 00:20:26;;;;;;;;;12.80;11.00;;;;;3.23;81.53;99902.63;5091460;28;8818;-58
2022/12/05 00:22:58;;;;;;;;;19.20;18.60;;;;;3.23;81.52;99907.88;5077141;28;8828;-58
2022/12/05 00:25:26;;;;;;;;;13.60;13.60;;;;;3.23;81.04;99913.13;5076997;28;8845;-58
2022/12/05 00:27:53;;;;;;;;;12.60;12.60;;;;;3.26;81.15;99912.13;5076111;28;8907;-60
2022/12/05 00:30:21;;;;;;;;;15.00;12.80;;;;;3.27;81.71;99912.03;5075908;28;8818;-59
2022/12/05 00:32:49;;;;;;;;;14.20;13.80;;;;;3.26;80.85;99920.88;5076422;28;9466;-60
2022/12/05 00:35:16;;;;;;;;;11.20;11.20;;;;;3.27;81.59;99909.41;5076618;28;8895;-58
2022/12/05 00:37:44;;;;;;;;;16.80;14.20;;;;;3.27;81.58;99912.03;5076993;28;8838;-58
2022/12/05 00:40:12;;;;;;;;;18.40;16.40;;;;;3.27;81.38;99912.03;5075939;28;8835;-57
2022/12/05 00:42:40;;;;;;;;;8.60;7.40;;;;;3.26;81.25;99910.34;5076487;28;8833;-59
2022/12/05 00:45:08;;;;;;;;;21.00;16.80;;;;;3.27;81.02;99903.31;5091416;28;8839;-57
2022/12/05 00:47:35;;;;;;;;;13.40;11.00;;;;;3.28;81.58;99907.66;5096400;28;8846;-59
2022/12/05 00:50:03;;;;;;;;;13.80;12.00;;;;;3.26;80.93;99902.44;5096793;28;8819;-58
2022/12/05 00:52:31;;;;;;;;;14.60;14.20;;;;;3.25;81.07;99900.75;5096565;28;8803;-58
2022/12/05 00:54:58;;;;;;;;;19.40;15.60;;;;;3.25;80.98;99892.84;5095695;28;8827;-59
2022/12/05 00:57:26;;;;;;;;;16.00;15.40;;;;;3.27;81.74;99896.25;5096837;28;8816;-59
2022/12/05 00:59:55;;;;;;;;;14.60;12.00;;;;;3.27;81.10;99896.25;5075788;28;8837;-58
2022/12/05 01:02:23;;;;;;;;;14.60;11.40;;;;;3.27;81.11;99895.41;5076646;28;8822;-58
2022/12/05 01:04:51;;;;;;;;;16.60;15.00;;;;;3.28;80.99;99891.84;5076148;28;8810;-58
2022/12/05 01:07:19;;;;;;;;;13.00;12.40;;;;;3.26;81.39;99889.28;5076395;28;8842;-59
2022/12/05 01:09:46;;;;;;;;;15.60;12.20;;;;;3.27;81.33;99896.25;5076485;28;8837;-59
2022/12/05 01:12:16;;;;;;;;;14.60;13.00;;;;;3.26;80.66;99889.28;5076369;28;8813;-60
2022/12/05 01:14:44;;;;;;;;;19.40;17.60;;;;;3.27;81.70;99891.00;5088697;28;8815;-57
2022/12/05 01:17:12;;;;;;;;;21.20;20.60;;;;;3.27;81.02;99885.72;5096072;28;8831;-59
2022/12/05 01:19:39;;;;;;;;;10.00;9.60;;;;;3.27;81.31;99891.00;5096542;28;9477;-60
2022/12/05 01:22:07;;;;;;;;;6.40;5.40;;;;;3.28;81.34;99892.72;5096189;28;8844;-57
2022/12/05 01:24:36;;;;;;;;;16.40;15.80;;;;;3.28;81.39;99891.84;5096049;28;8819;-57
2022/12/05 01:27:04;;;;;;;;;6.80;6.20;;;;;3.28;81.72;99894.50;5096182;28;8828;-59
2022/12/05 01:29:31;;;;;;;;;12.80;11.00;;;;;3.28;81.38;99892.72;5078588;28;8826;-60
2022/12/05 01:31:59;;;;;;;;;18.00;17.20;;;;;3.29;81.44;99891.78;5075867;28;8845;-59
2022/12/05 01:34:27;;;;;;;;;13.80;13.80;;;;;3.30;80.80;99890.00;5076419;28;9514;-57
2022/12/05 01:36:54;;;;;;;;;15.20;14.60;;;;;3.31;81.62;99891.69;5075379;28;9592;-59
2022/12/05 01:39:22;;;;;;;;;15.40;14.60;;;;;3.31;80.96;99895.19;5075957;28;8818;-59
2022/12/05 01:41:50;;;;;;;;;18.80;15.20;;;;;3.31;81.06;99895.19;5075800;28;8826;-60
2022/12/05 01:44:17;;;;;;;;;12.00;9.80;;;;;3.32;80.78;99899.50;5084089;28;8816;-59
2022/12/05 01:46:45;;;;;;;;;12.80;9.80;;;;;3.32;81.53;99894.25;5096326;28;8921;-60
2022/12/05 01:49:13;;;;;;;;;15.80;15.00;;;;;3.33;81.68;99897.75;5095765;28;8912;-58
2022/12/05 01:51:41;;;;;;;;;18.20;18.00;;;;;3.32;81.52;99893.41;5096027;28;8851;-58
2022/12/05 01:54:09;;;;;;;;;13.40;12.80;;;;;3.33;81.66;99890.69;5095779;28;9482;-60
2022/12/05 01:56:36;;;;;;;;;12.20;10.80;;;;;3.33;80.94;99895.94;5096082;28;8827;-57
2022/12/05 01:59:04;;;;;;;;;9.40;6.60;;;;;3.35;81.69;99898.50;5082518;28;8798;-59
2022/12/05 02:01:33;;;;;;;;;3.60;3.60;;;;;3.35;81.12;99906.41;5075563;28;8919;-58
2022/12/05 02:04:01;;;;;;;;;19.00;17.20;;;;;3.35;81.29;99907.28;5075419;28;8806;-60
2022/12/05 02:06:29;;;;;;;;;10.00;9.00;;;;;3.35;81.35;99906.41;5078494;28;8821;-59
2022/12/05 02:08:57;;;;;;;;;8.20;7.60;;;;;3.36;81.20;99911.59;5079914;28;8833;-57
2022/12/05 02:11:24;;;;;;;;;20.40;15.60;;;;;3.38;81.51;99914.13;5079707;28;9487;-58
2022/12/05 02:13:52;;;;;;;;;12.00;9.80;;;;;3.38;81.01;99915.00;5084370;28;8831;-59
2022/12/05 02:16:20;;;;;;;;;10.20;9.40;;;;;3.38;81.19;99916.75;5099394;28;8847;-57
2022/12/05 02:18:48;;;;;;;;;13.80;13.80;;;;;3.40;81.34;99912.28;5099686;28;8954;-59
2022/12/05 02:21:15;;;;;;;;;12.00;11.60;;;;;3.38;81.09;99912.38;5099493;28;8816;-58
2022/12/05 02:23:43;;;;;;;;;11.20;10.00;;;;;3.39;81.58;99916.69;5099747;28;8839;-60
2022/12/05 02:26:12;;;;;;;;;16.00;13.00;;;;;3.40;81.17;99918.38;5099340;28;8848;-59
2022/12/05 02:28:40;;;;;;;;;15.60;14.20;;;;;3.39;81.54;99914.06;5089796;28;8818;-58
2022/12/05 02:31:08;;;;;;;;;15.40;12.00;;;;;3.39;81.35;99910.59;5079459;28;8833;-60
2022/12/05 02:33:35;;;;;;;;;9.60;9.60;;;;;3.39;81.08;99910.59;5079121;28;8810;-58
2022/12/05 02:36:03;;;;;;;;;5.20;5.20;;;;;3.39;81.12;99914.06;5079597;28;9945;-60
2022/12/05 02:38:33;;;;;;;;;18.60;16.80;;;;;3.39;80.73;99914.06;5079063;28;8818;-60
2022/12/05 02:41:01;;;;;;;;;15.00;15.00;;;;;3.38;80.78;99903.59;5078564;28;8802;-60
2022/12/05 02:43:29;;;;;;;;;13.00;12.60;;;;;3.36;81.45;99908.97;5080382;28;8853;-59
2022/12/05 02:45:57;;;;;;;;;2.20;0.60;;;;;3.36;80.87;99910.72;5099579;28;8851;-59
2022/12/05 02:48:24;;;;;;;;;9.20;7.80;;;;;3.35;80.64;99912.53;5098917;28;8837;-59
2022/12/05 02:50:53;;;;;;;;;17.60;14.60;;;;;3.36;81.77;99916.84;5099085;28;8831;-57
2022/12/05 02:53:21;;;;;;;;;15.40;15.20;;;;;3.36;81.31;99916.84;5099365;28;8816;-59
2022/12/05 02:55:48;;;;;;;;;6.80;6.80;;;;;3.37;81.53;99921.19;5099067;28;8844;-60
2022/12/05 02:58:16;;;;;;;;;18.20;17.20;;;;;3.37;80.92;99926.44;5093073;28;9475;-58
2022/12/05 03:00:43;;;;;;;;;16.80;14.20;;;;;3.39;80.96;99915.84;5078052;28;8802;-59
2022/12/05 03:03:11;;;;;;;;;15.20;13.40;;;;;3.38;80.65;99925.53;5079001;28;9559;-59
2022/12/05 03:05:39;;;;;;;;;13.00;12.00;;;;;3.37;81.09;99923.81;5078969;28;8825;-58
2022/12/05 03:08:06;;;;;;;;;15.40;13.40;;;;;3.38;81.48;99924.66;5078752;28;8838;-57
2022/12/05 03:10:34;;;;;;;;;13.00;11.20;;;;;3.38;81.21;99924.66;5078642;28;8829;-57
2022/12/05 03:13:08;;;;;;;;;16.80;16.00;;;;;3.37;81.59;99929.09;5078456;28;8834;-58
2022/12/05 03:15:36;;;;;;;;;12.60;11.80;;;;;3.37;81.58;99928.22;5097654;28;8827;-57
2022/12/05 03:18:05;;;;;;;;;18.40;16.40;;;;;3.37;81.85;99922.97;5097795;28;8812;-58
2022/12/05 03:20:33;;;;;;;;;13.40;12.40;;;;;3.36;81.09;99927.38;5098883;28;9496;-58
2022/12/05 03:23:01;;;;;;;;;11.80;11.40;;;;;3.35;81.43;99925.69;5098478;28;8823;-59
2022/12/05 03:25:28;;;;;;;;;13.80;11.60;;;;;3.34;81.69;99917.88;5098148;28;8840;-57
2022/12/05 03:27:56;;;;;;;;;13.00;11.20;;;;;3.33;81.57;99917.00;5095246;28;8853;-59
2022/12/05 03:30:24;;;;;;;;;13.20;11.60;;;;;3.33;81.42;99914.38;5078350;28;8849;-58
2022/12/05 03:32:51;;;;;;;;;15.00;14.20;;;;;3.34;81.75;99912.59;5077913;28;8826;-58
2022/12/05 03:35:19;;;;;;;;;14.80;14.80;;;;;3.32;81.50;99912.66;5078019;28;8914;-58
2022/12/05 03:37:46;;;;;;;;;14.20;10.20;;;;;3.32;81.78;99907.41;5078167;28;8802;-58
2022/12/05 03:40:15;;;;;;;;;18.20;16.00;;;;;3.30;81.99;99909.28;5077884;28;8818;-60
2022/12/05 03:42:44;;;;;;;;;10.40;10.40;;;;;3.29;81.73;99910.22;5077972;28;8818;-59
2022/12/05 03:45:11;;;;;;;;;13.20;11.80;;;;;3.26;81.67;99915.59;5093745;28;8883;-60
2022/12/05 03:47:39;;;;;;;;;15.00;14.20;;;;;3.22;81.59;99914.06;5097907;28;8824;-60
2022/12/05 03:50:06;;;;;;;;;10.80;10.40;;;;;3.20;81.21;99915.94;5097927;28;8847;-59
2022/12/05 03:52:35;;;;;;;;;12.20;10.00;;;;;3.17;81.80;99915.25;5097863;28;8910;-58
2022/12/05 03:55:23;;;;;;;;;12.20;9.40;;;;;3.12;81.96;99912.84;5097550;28;8933;-59
2022/12/05 03:57:51;;;;;;;;;12.00;12.00;;;;;3.11;81.96;99916.38;5095238;28;8824;-58
2022/12/05 04:00:18;;;;;;;;;10.00;6.40;;;;;3.12;81.49;99911.97;5077402;28;8927;-59
2022/12/05 04:02:46;;;;;;;;;13.40;12.20;;;;;3.12;82.24;99911.97;5077578;28;9610;-59
2022/12/05 04:05:14;;;;;;;;;16.60;15.00;;;;;3.11;81.96;99921.63;5077379;28;8845;-59
2022/12/05 04:07:42;;;;;;;;;14.00;11.20;;;;;3.11;82.07;99921.63;5077195;28;8818;-60
2022/12/05 04:10:10;;;;;;;;;13.40;9.80;;;;;3.09;82.29;99918.25;5077034;28;8919;-59
2022/12/05 04:12:37;;;;;;;;;13.80;12.60;;;;;3.10;81.97;99927.00;5077177;28;8891;-58
2022/12/05 04:15:07;;;;;;;;;6.60;4.40;;;;;3.10;82.11;99925.19;5091484;28;8831;-57
2022/12/05 04:17:33;;;;;;;;;15.60;12.60;;;;;3.10;81.66;99922.56;5097378;28;9512;-58
2022/12/05 04:22:46;;;;;;;;;13.40;12.80;;;;;3.13;81.81;99929.47;5080932;28;8914;-57
2022/12/05 04:28:00;;;;;;;;;11.20;9.00;;;;;3.12;82.24;99923.38;5076515;28;8842;-59
2022/12/05 04:30:28;;;;;;;;;13.00;10.40;;;;;3.12;81.46;99927.75;5075652;28;8849;-58
2022/12/05 04:32:56;;;;;;;;;6.00;3.20;;;;;3.12;81.43;99931.25;5076609;28;8834;-59
2022/12/05 04:35:23;;;;;;;;;15.00;14.60;;;;;3.12;81.58;99933.03;5076217;28;8938;-58
2022/12/05 04:37:51;;;;;;;;;7.20;6.40;;;;;3.13;81.88;99932.09;5075819;28;8829;-57
2022/12/05 04:40:19;;;;;;;;;5.60;4.80;;;;;3.13;81.70;99932.09;5076416;28;8869;-58
2022/12/05 04:42:46;;;;;;;;;6.20;5.20;;;;;3.13;81.38;99940.84;5076439;28;8845;-59
2022/12/05 04:45:14;;;;;;;;;15.20;12.40;;;;;3.11;81.58;99926.06;5092462;28;8800;-59
2022/12/05 04:47:41;;;;;;;;;16.80;14.20;;;;;3.11;81.12;99940.03;5096464;28;8819;-59
2022/12/05 04:50:09;;;;;;;;;12.40;12.00;;;;;3.10;81.64;99929.63;5096946;28;8932;-59
2022/12/05 04:52:37;;;;;;;;;9.20;8.00;;;;;3.10;82.13;99930.47;5082577;28;8845;-59
2022/12/05 04:55:05;;;;;;;;;10.80;9.20;;;;;3.10;81.58;99935.72;5076455;28;8899;-59
2022/12/05 04:57:33;;;;;;;;;11.20;9.20;;;;;3.09;81.64;99931.38;5076363;28;8905;-58
2022/12/05 05:00:00;;;;;;;;;10.00;10.00;;;;;3.06;81.92;99926.28;5076572;28;8822;-59
2022/12/05 05:02:28;;;;;;;;;4.80;4.00;;;;;3.06;81.57;99926.28;5076432;28;8821;-59
2022/12/05 05:04:59;;;;;;;;;12.00;8.60;;;;;3.04;81.85;99925.50;5075671;28;8822;-59
2022/12/05 05:07:27;;;;;;;;;12.20;10.00;;;;;3.05;81.48;99924.59;5075134;28;8821;-60
2022/12/05 05:09:55;;;;;;;;;12.00;9.00;;;;;3.05;81.53;99923.72;5075031;28;8814;-59
2022/12/05 05:12:22;;;;;;;;;6.00;5.20;;;;;3.05;82.00;99921.97;5074519;28;8841;-59
2022/12/05 05:14:50;;;;;;;;;15.00;12.80;;;;;3.05;81.25;99921.97;5088576;28;8928;-59
2022/12/05 05:17:18;;;;;;;;;12.60;10.40;;;;;3.04;81.45;99925.50;5095839;28;8832;-58
2022/12/05 05:19:46;;;;;;;;;10.80;10.00;;;;;3.05;82.05;99927.22;5096438;28;8831;-59
2022/12/05 05:22:13;;;;;;;;;9.20;7.00;;;;;3.05;81.62;99932.50;5085713;28;8895;-59
2022/12/05 05:24:41;;;;;;;;;12.60;10.00;;;;;3.06;82.04;99938.56;5076136;28;8830;-57
2022/12/05 05:27:08;;;;;;;;;14.60;11.40;;;;;3.07;81.16;99941.16;5076037;28;8854;-59
2022/12/05 05:29:37;;;;;;;;;12.40;11.20;;;;;3.06;81.76;99942.06;5076009;28;8826;-59
2022/12/05 05:32:05;;;;;;;;;9.60;9.60;;;;;3.04;81.70;99943.91;5075634;28;8830;-59
2022/12/05 05:34:33;;;;;;;;;13.20;11.20;;;;;3.02;81.88;99940.50;5075638;28;8911;-58
2022/12/05 05:37:00;;;;;;;;;6.40;6.40;;;;;3.00;81.79;99947.63;5075650;28;8825;-59
2022/12/05 05:39:28;;;;;;;;;6.60;6.20;;;;;2.96;82.17;99948.69;5075606;28;8806;-57
2022/12/05 05:41:56;;;;;;;;;10.40;10.00;;;;;2.92;81.79;99941.03;5075481;28;8899;-58
2022/12/05 05:44:24;;;;;;;;;11.80;10.80;;;;;2.89;81.71;99956.97;5084704;28;8819;-59
2022/12/05 05:46:51;;;;;;;;;12.20;9.80;;;;;2.86;82.44;99947.44;5095077;28;8828;-59
2022/12/05 05:49:19;;;;;;;;;10.40;8.60;;;;;2.83;81.83;99952.88;5095285;28;8851;-59
2022/12/05 05:51:47;;;;;;;;;9.40;7.80;;;;;2.82;82.08;99955.56;5088377;28;8881;-59
2022/12/05 05:54:15;;;;;;;;;7.40;6.80;;;;;2.80;82.38;99960.88;5075012;28;8806;-57
2022/12/05 05:56:42;;;;;;;;;11.60;11.60;;;;;2.79;81.68;99961.81;5075067;28;8838;-58
2022/12/05 05:59:10;;;;;;;;;6.60;6.60;;;;;2.78;82.14;99962.72;5074869;28;8934;-59
2022/12/05 06:01:38;;;;;;;;;12.80;12.00;;;;;2.77;82.20;99961.03;5074235;28;8829;-59
2022/12/05 06:04:06;;;;;;;;;9.40;9.40;;;;;2.76;82.60;99971.63;5074506;28;9525;-58
2022/12/05 06:06:34;;;;;;;;;6.80;6.20;;;;;2.73;81.90;99962.09;5074503;28;8903;-58
2022/12/05 06:09:02;;;;;;;;;10.00;9.40;;;;;2.74;82.22;99974.31;5073675;28;8841;-59
2022/12/05 06:11:30;;;;;;;;;10.00;9.00;;;;;2.74;82.53;99968.22;5073696;28;8834;-57
2022/12/05 06:13:59;;;;;;;;;11.00;9.00;;;;;2.73;82.48;99972.59;5079557;28;8827;-57
2022/12/05 06:16:27;;;;;;;;;1.00;1.00;;;;;2.73;82.17;99967.34;5094382;28;8827;-56
2022/12/05 06:18:55;;;;;;;;;13.00;11.00;;;;;2.73;82.18;99969.16;5094329;28;8827;-58
2022/12/05 06:21:23;;;;;;;;;4.40;4.40;;;;;2.73;82.25;99969.16;5094054;28;8827;-59
2022/12/05 06:23:51;;;;;;;;;12.00;9.00;;;;;2.73;81.85;99969.97;5093993;28;8908;-58
2022/12/05 06:26:19;;;;;;;;;12.00;9.60;;;;;2.71;82.24;99974.47;5093326;28;8831;-57
2022/12/05 06:28:46;;;;;;;;;11.00;9.60;;;;;2.72;82.15;99978.78;5093817;28;8828;-60
2022/12/05 06:31:15;;;;;;;;;11.40;9.80;;;;;2.72;82.08;99980.59;5092798;28;8840;-58
2022/12/05 06:33:42;;;;;;;;;11.60;9.80;;;;;2.71;82.61;99984.97;5093152;28;8819;-59
2022/12/05 06:36:10;;;;;;;;;10.00;9.20;;;;;2.70;82.18;99979.78;5093128;28;8824;-58
2022/12/05 06:38:38;;;;;;;;;10.40;9.20;;;;;2.69;82.16;99984.22;5092597;28;8839;-59
2022/12/05 06:41:09;;;;;;;;;14.20;12.80;;;;;2.67;81.82;99990.47;5091773;28;8857;-58
2022/12/05 06:43:38;;;;;;;;;11.40;8.60;;;;;2.63;82.77;99991.50;5092217;28;8839;-59
2022/12/05 06:46:05;;;;;;;;;8.20;8.20;;;;;2.61;82.07;99988.97;5092105;28;8830;-57
2022/12/05 06:48:33;;;;;;;;;7.00;7.00;;;;;2.62;82.26;99984.56;5092617;28;9606;-59
2022/12/05 06:51:01;;;;;;;;;8.20;7.40;;;;;2.60;82.52;99989.91;5092961;28;8928;-59
2022/12/05 06:53:29;;;;;;;;;14.20;12.80;;;;;2.58;82.12;99985.63;5094845;28;8939;-58
2022/12/05 06:55:58;;;;;;;;;13.60;11.40;;;;;2.55;82.12;100005.03;5096015;28;8832;-59
2022/12/05 06:58:25;;;;;;;;;10.80;10.60;;;;;2.53;82.99;99999.00;5094596;28;8823;-59
2022/12/05 07:03:38;;;;;;;;;7.00;6.60;;;;;2.51;82.10;100003.44;5094376;28;9533;-58
2022/12/05 07:06:07;;;;;;;;;9.00;7.00;;;;;2.50;82.30;100009.63;5094798;28;8812;-58
2022/12/05 07:08:35;;;;;;;;;14.80;13.80;;;;;2.49;82.79;100005.31;5094589;28;8835;-59
2022/12/05 07:11:03;;;;;;;;;6.20;6.20;;;;;2.50;82.48;100006.16;5094285;28;8847;-60
2022/12/05 07:13:31;;;;;;;;;4.20;3.80;;;;;2.50;82.46;100000.91;5094460;28;8824;-59
2022/12/05 07:15:58;;;;;;;;;7.60;5.60;;;;;2.50;82.34;100007.00;5094133;28;8920;-58
2022/12/05 07:18:28;;;;;;;;;7.80;6.40;;;;;2.50;83.16;100012.25;5093140;28;8973;-59
2022/12/05 07:20:56;;;;;;;;;4.40;4.00;;;;;2.51;82.54;100008.69;5093476;28;8823;-59
2022/12/05 07:23:40;;;;;;;;;7.40;6.80;;;;;2.50;82.52;100012.25;5094411;28;8823;-59
2022/12/05 07:26:08;;;;;;;;;7.40;7.00;;;;;2.50;82.86;100012.25;5094184;28;8847;-59
2022/12/05 07:28:36;;;;;;;;;9.00;7.00;;;;;2.49;82.79;100010.56;5094908;28;8831;-59
2022/12/05 07:31:03;;;;;;;;;7.40;6.20;;;;;2.49;82.09;100017.59;5095473;28;8848;-59
2022/12/05 07:33:32;;;;;;;;;11.20;9.40;;;;;2.47;82.47;100011.53;5094675;28;8952;-59
2022/12/05 07:35:59;;;;;;;;;5.80;4.40;;;;;2.44;82.23;100017.78;5094666;28;8844;-59
2022/12/05 07:38:27;;;;;;;;;3.00;3.00;;;;;2.43;82.39;100023.13;5094840;28;8854;-59
2022/12/05 07:40:56;;;;;;;;;6.80;4.00;;;;;2.42;82.48;100024.88;5095073;28;9540;-59
2022/12/05 07:43:24;;;;;;;;;7.40;6.60;;;;;2.42;82.27;100026.69;5093894;28;8846;-59
2022/12/05 07:45:52;;;;;;;;;3.20;2.80;;;;;2.41;82.28;100025.81;5093056;28;8893;-58
2022/12/05 07:48:19;;;;;;;;;6.20;6.00;;;;;2.40;82.42;100024.13;5093103;28;8812;-60
2022/12/05 07:50:47;;;;;;;;;9.20;6.80;;;;;2.40;82.75;100018.88;5093701;28;8852;-59
2022/12/05 07:53:15;;;;;;;;;8.60;8.20;;;;;2.38;82.62;100018.09;5091014;28;8820;-59
2022/12/05 07:55:43;;;;;;;;;7.00;6.00;;;;;2.38;82.52;100020.72;5091310;28;8843;-60
2022/12/05 07:58:10;;;;;;;;;4.40;4.40;;;;;2.38;83.05;100022.47;5091384;28;8820;-59
2022/12/05 08:00:38;;;;;;;;;6.80;6.80;;;;;2.40;82.80;100029.38;5092370;28;8843;-59
2022/12/05 08:03:06;;;;;;;;;8.00;6.60;;;;;2.41;82.50;100024.97;5091561;28;8827;-59
2022/12/05 08:05:34;;;;;;;;;7.00;6.60;;;;;2.42;82.63;100024.88;5092408;28;8811;-59
2022/12/05 08:08:02;;;;;;;;;6.20;5.60;;;;;2.43;82.64;100025.75;5092592;28;9500;-59
2022/12/05 08:10:30;;;;;;;;;9.20;8.80;;;;;2.43;82.00;100026.59;5092994;28;8842;-60
2022/12/05 08:12:58;;;;;;;;;3.40;3.40;;;;;2.43;82.23;100041.53;5094074;28;9564;-59
2022/12/05 08:15:26;;;;;;;;;4.80;4.80;;;;;2.43;82.58;100033.63;5093770;28;8811;-59
2022/12/05 08:17:56;;;;;;;;;3.00;2.60;;;;;2.42;82.73;100040.66;5094511;28;8823;-59
2022/12/05 08:20:24;;;;;;;;;3.60;3.00;;;;;2.45;82.59;100048.41;5094811;28;8827;-59
2022/12/05 08:22:53;;;;;;;;;6.80;6.80;;;;;2.45;82.73;100044.91;5093580;28;8827;-59
2022/12/05 08:25:21;;;;;;;;;3.00;3.00;;;;;2.44;82.55;100048.47;5094227;28;8846;-58
2022/12/05 08:27:48;;;;;;;;;4.80;4.80;;;;;2.44;81.98;100044.06;5094404;28;8842;-58
2022/12/05 08:30:17;;;;;;;;;3.40;3.00;;;;;2.45;82.76;100055.44;5094023;28;9489;-59
2022/12/05 08:32:45;;;;;;;;;5.20;5.20;;;;;2.45;82.57;100061.56;5093771;28;8843;-59
2022/12/05 08:35:12;;;;;;;;;7.00;6.00;;;;;2.46;82.71;100068.50;5092345;28;9544;-59
2022/12/05 08:37:40;;;;;;;;;6.00;4.00;;;;;2.45;82.35;100064.19;5092107;28;8829;-58
2022/12/05 08:40:08;;;;;;;;;4.40;4.00;;;;;2.45;82.32;100074.69;5092190;28;8900;-56
2022/12/05 08:42:36;;;;;;;;;1.00;1.00;;;;;2.45;82.43;100072.06;5092419;28;8827;-59
2022/12/05 08:45:04;;;;;;;;;4.00;4.00;;;;;2.46;82.98;100072.91;5091741;28;8823;-59
2022/12/05 08:47:32;;;;;;;;;4.40;4.40;;;;;2.48;82.53;100076.31;5093871;28;8831;-59
2022/12/05 08:49:59;;;;;;;;;6.40;6.40;;;;;2.48;82.35;100071.91;5093411;28;8839;-57
2022/12/05 08:52:27;;;;;;;;;8.20;6.80;;;;;2.50;82.50;100077.09;5094870;28;8849;-58
2022/12/05 08:54:56;;;;;;;;;6.40;6.00;;;;;2.50;82.03;100082.38;5094305;28;8950;-56
2022/12/05 08:57:24;;;;;;;;;7.40;7.40;;;;;2.50;82.54;100080.56;5094056;28;8820;-59
2022/12/05 08:59:51;;;;;;;;;3.00;3.00;;;;;2.51;82.49;100084.91;5094537;28;8847;-59
2022/12/05 09:02:19;;;;;;;;;3.40;3.40;;;;;2.53;82.13;100090.09;5093855;28;8823;-58
2022/12/05 09:04:47;;;;;;;;;2.60;2.60;;;;;2.53;82.42;100076.97;5094071;28;8835;-58
2022/12/05 09:07:20;;;;;;;;;6.80;6.00;;;;;2.54;82.58;100081.28;5094187;28;8827;-58
2022/12/05 09:09:48;;;;;;;;;7.20;6.60;;;;;2.54;82.23;100087.41;5092833;28;9549;-59
2022/12/05 09:12:16;;;;;;;;;6.00;6.00;;;;;2.56;82.45;100088.19;5091732;28;8924;-57
2022/12/05 09:14:44;;;;;;;;;0.00;0.00;;;;;2.56;82.31;100080.31;5091444;28;8831;-59
2022/12/05 09:17:12;;;;;;;;;7.20;6.00;;;;;2.58;82.22;100088.13;5091979;28;8873;-59
2022/12/05 09:19:41;;;;;;;;;4.00;4.00;;;;;2.58;82.79;100088.97;5091872;28;9597;-58
2022/12/05 09:22:09;;;;;;;;;4.00;3.40;;;;;2.59;81.88;100085.41;5091799;28;8811;-58
2022/12/05 09:24:37;;;;;;;;;3.80;3.80;;;;;2.60;81.84;100086.28;5091847;28;9514;-58
2022/12/05 09:27:05;;;;;;;;;7.40;6.00;;;;;2.59;82.20;100088.03;5092090;28;9530;-58
2022/12/05 09:29:32;;;;;;;;;6.40;6.00;;;;;2.61;82.55;100085.34;5091948;28;8827;-58
2022/12/05 09:32:01;;;;;;;;;4.80;4.00;;;;;2.61;81.82;100098.50;5092894;28;8831;-57
2022/12/05 09:34:29;;;;;;;;;5.20;5.20;;;;;2.62;82.03;100094.94;5092405;28;8835;-59
2022/12/05 09:36:59;;;;;;;;;6.00;4.40;;;;;2.62;81.79;100090.53;5092811;28;8820;-58
2022/12/05 09:39:46;;;;;;;;;6.00;4.80;;;;;2.64;82.22;100095.75;5092761;28;9586;-57
2022/12/05 09:42:17;;;;;;;;;1.80;1.80;;;;;2.63;81.90;100097.50;5091992;28;9524;-59
2022/12/05 09:44:45;;;;;;;;;1.00;1.00;;;;;2.65;82.25;100100.06;5090946;28;8827;-59
2022/12/05 09:47:13;;;;;;;;;6.60;6.40;;;;;2.65;81.99;100085.13;5091253;28;8936;-59
2022/12/05 09:49:40;;;;;;;;;7.00;7.00;;;;;2.64;82.27;100083.44;5090689;28;8835;-59
2022/12/05 09:52:08;;;;;;;;;6.60;4.80;;;;;2.66;82.08;100092.09;5092125;28;8828;-59
2022/12/05 09:54:38;;;;;;;;;7.00;6.40;;;;;2.66;81.68;100094.72;5091244;28;8844;-59
2022/12/05 09:57:06;;;;;;;;;3.60;3.00;;;;;2.67;81.86;100093.84;5091651;28;8847;-59
2022/12/05 09:59:34;;;;;;;;;8.20;7.80;;;;;2.69;81.91;100093.75;5093041;28;8962;-59
2022/12/05 10:02:01;;;;;;;;;6.60;6.60;;;;;2.69;81.82;100091.97;5091597;28;8830;-59
2022/12/05 10:04:30;;;;;;;;;6.00;6.00;;;;;2.71;81.50;100089.25;5091606;28;8820;-58
2022/12/05 10:07:01;;;;;;;;;8.20;7.00;;;;;2.71;81.69;100087.50;5091913;28;8832;-59
2022/12/05 10:09:29;;;;;;;;;6.00;5.20;;;;;2.73;81.89;100076.91;5092121;28;8970;-59
2022/12/05 10:11:57;;;;;;;;;8.00;6.60;;;;;2.73;81.57;100079.56;5091863;28;8843;-59
2022/12/05 10:14:25;;;;;;;;;10.60;9.40;;;;;2.71;82.03;100090.13;5091945;28;8850;-59
2022/12/05 10:16:54;;;;;;;;;7.00;6.80;;;;;2.71;81.35;100084.88;5092708;28;8862;-59
2022/12/05 10:19:22;;;;;;;;;9.40;9.00;;;;;2.72;82.22;100089.19;5092691;28;8816;-59
2022/12/05 10:21:50;;;;;;;;;9.00;9.00;;;;;2.72;81.95;100078.69;5092990;28;8847;-59
2022/12/05 10:24:18;;;;;;;;;4.80;4.80;;;;;2.73;81.39;100085.63;5092391;28;8840;-59
2022/12/05 10:26:45;;;;;;;;;10.80;10.80;;;;;2.75;82.26;100091.72;5091075;28;9630;-59
2022/12/05 10:29:13;;;;;;;;;10.80;9.80;;;;;2.74;82.02;100084.72;5095311;28;8882;-59
2022/12/05 10:31:43;;;;;;;;;11.80;11.20;;;;;2.76;81.53;100082.03;5094001;28;8843;-59
2022/12/05 10:34:11;;;;;;;;;9.80;9.20;;;;;2.76;81.90;100077.63;5093446;28;8835;-59
2022/12/05 10:36:39;;;;;;;;;10.00;9.60;;;;;2.77;81.39;100083.72;5092162;28;8842;-59
2022/12/05 10:39:07;;;;;;;;;13.80;10.00;;;;;2.78;81.78;100081.03;5091946;28;9184;-58
2022/12/05 10:41:38;;;;;;;;;10.00;9.00;;;;;2.79;81.49;100081.91;5092567;28;8849;-60
2022/12/05 10:44:08;;;;;;;;;12.60;12.60;;;;;2.79;81.55;100087.16;5092371;28;8943;-59
2022/12/05 10:46:36;;;;;;;;;8.20;6.20;;;;;2.77;81.85;100087.22;5093282;28;8835;-59
2022/12/05 10:49:04;;;;;;;;;11.00;9.20;;;;;2.76;81.79;100087.28;5094076;28;8827;-59
2022/12/05 10:51:32;;;;;;;;;6.00;6.00;;;;;2.73;81.48;100082.19;5094117;28;8843;-59
2022/12/05 10:54:04;;;;;;;;;10.00;8.20;;;;;2.73;82.08;100085.63;5095467;28;8859;-59
2022/12/05 10:56:32;;;;;;;;;6.20;6.20;;;;;2.70;81.97;100091.06;5095242;28;8866;-58
2022/12/05 10:59:00;;;;;;;;;11.20;10.20;;;;;2.70;81.63;100084.94;5095785;28;8877;-59
2022/12/05 11:01:28;;;;;;;;;9.60;8.40;;;;;2.69;81.34;100080.59;5094598;28;8823;-59
2022/12/05 11:03:56;;;;;;;;;10.80;10.00;;;;;2.68;81.67;100084.16;5094669;28;8986;-58
2022/12/05 11:06:24;;;;;;;;;13.80;12.40;;;;;2.69;81.50;100073.56;5095217;28;8861;-59
2022/12/05 11:08:53;;;;;;;;;5.60;4.80;;;;;2.68;82.31;100077.13;5095685;28;8970;-59
2022/12/05 11:11:36;;;;;;;;;7.40;7.40;;;;;2.69;82.23;100076.22;5094662;28;8893;-59
2022/12/05 11:14:04;;;;;;;;;9.00;7.00;;;;;2.69;81.85;100073.56;5093262;28;8823;-57
2022/12/05 11:16:32;;;;;;;;;7.40;7.40;;;;;2.69;81.54;100070.94;5092732;28;8832;-58
2022/12/05 11:19:03;;;;;;;;;1.80;1.00;;;;;2.71;81.78;100073.47;5094047;28;8827;-59
2022/12/05 11:21:30;;;;;;;;;6.00;6.00;;;;;2.71;82.14;100069.09;5093592;28;8836;-58
2022/12/05 11:23:58;;;;;;;;;5.60;4.20;;;;;2.71;81.33;100071.72;5092579;28;8828;-59
2022/12/05 11:26:26;;;;;;;;;9.00;6.80;;;;;2.75;82.03;100068.03;5091784;28;8852;-59
2022/12/05 11:28:54;;;;;;;;;9.20;9.00;;;;;2.75;81.46;100070.69;5093188;28;8929;-59
2022/12/05 11:31:24;;;;;;;;;6.40;6.40;;;;;2.75;81.48;100062.78;5094008;28;9252;-58
2022/12/05 11:33:52;;;;;;;;;7.00;6.00;;;;;2.78;82.11;100062.63;5093530;28;8926;-58
2022/12/05 11:36:26;;;;;;;;;9.20;9.20;;;;;2.77;81.26;100065.31;5093247;28;8832;-59
2022/12/05 11:38:54;;;;;;;;;10.80;10.80;;;;;2.76;81.72;100066.25;5092184;28;8844;-59
2022/12/05 11:41:23;;;;;;;;;10.20;9.60;;;;;2.74;81.93;100063.69;5093540;28;8865;-58
2022/12/05 11:43:51;;;;;;;;;10.00;9.00;;;;;2.73;81.56;100067.25;5093241;28;8815;-59
2022/12/05 11:46:18;;;;;;;;;9.80;6.60;;;;;2.73;81.98;100061.16;5092229;28;8847;-59
2022/12/05 11:48:53;;;;;;;;;9.60;8.60;;;;;2.72;81.85;100062.06;5092867;28;8904;-59
2022/12/05 11:51:21;;;;;;;;;5.60;4.80;;;;;2.72;81.80;100065.53;5093965;28;8839;-58